Dali, China
Current Conditions -  °F | °C
As of 9:00 PM on Friday 19 Dec 2014 (Local Time) from ZPPP Reporting Station
Clear Clear  
Wind Chill: 36°   Ceiling: Unl
Heat Index: 39°   Visibility: 5mi
Dew Point: 36°   Wind: 4mph
Humidity: 87%   Direction: 190°S
Pressure: 30.3"   Gusts: NA
Location:  25.7°N, 100.15°E
Report Text: ZPPP 191300Z 19002MPS 8000 NSC 04/02 Q1026 NOSIG
Loading
Personal Weather Stations






























Interactive Weather Map New forecast layout! Learn more

10-Day Weather Forecast

Advertisements
Track Severe Weather on mobile